Flight Track Log - Related Links

Times and Time Zones

All times are in EDT time to prevent confusion due to time zone crossing. See the AWI4054 flight status page for this flight to view local times or setup timezone preferences in your user account.

Time Position Orientation Groundspeed Altitude Reporting Facility
EDT Latitude Longitude Course Direction KTS MPH feet Rate Location/Type
Fri 11:03:00 AM 33.1403 -79.9588 16° North  Level FlightAware Approximate
Fri 11:03:39 AM 32.9397 -79.9322 13° North 236 272 6,300  Level Jacksonville Center
Fri 11:04:00 AM 33.2259 -79.9315 North  Level FlightAware Approximate
Fri 11:04:39 AM 33.0128 -79.9322 360° North 231 266 8,500  Level Jacksonville Center
Fri 11:05:00 AM 33.3126 -79.9104 23° Northeast  Level FlightAware Approximate
Fri 11:05:39 AM 33.0922 -79.9347 358° North 247 284 10,400  Level Jacksonville Center
Fri 11:06:00 AM 33.3963 -79.8774 North  Level FlightAware Approximate
Fri 11:06:39 AM 33.1675 -79.9372 358° North 285 328 12,300  Level Jacksonville Center
Fri 11:07:00 AM 33.4833 -79.8572 13° North  Level FlightAware Approximate
Fri 11:07:39 AM 33.2508 -79.9319 North 296 341 13,800  Level Jacksonville Center
Fri 11:08:00 AM 33.5696 -79.8325 13° North  Level FlightAware Approximate
Fri 11:08:39 AM 33.3358 -79.9092 13° North 302 348 15,400  Level Jacksonville Center
Fri 11:09:00 AM 33.6559 -79.8079 13° North  Level FlightAware Approximate
Fri 11:09:39 AM 33.4228 -79.8864 12° North 314 361 16,800  Level Jacksonville Center
Fri 11:10:39 AM 33.5142 -79.8608 13° North 314 361 17,900 1,100 Climbing Jacksonville Center
Fri 11:11:39 AM 33.6075 -79.8353 13° North 325 374 19,000 1,100 Climbing Jacksonville Center
Fri 11:12:39 AM 33.7028 -79.8094 13° North 336 387 20,100 1,150 Climbing Jacksonville Center
Fri 11:13:39 AM 33.7981 -79.7811 14° North 347 399 21,300 1,100 Climbing Jacksonville Center
Fri 11:14:39 AM 33.8886 -79.7278 26° Northeast 353 406 22,300 950 Climbing Jacksonville Center
Fri 11:15:39 AM 33.9614 -79.6350 47° Northeast 359 413 23,200 1,000 Climbing Jacksonville Center
Fri 11:16:39 AM 34.0342 -79.5472 45° Northeast 359 413 24,300 1,000 Climbing Jacksonville Center
Fri 11:17:39 AM 34.1067 -79.4567 46° Northeast 364 419 25,200 780 Climbing Jacksonville Center
Fri 11:19:59 AM 34.2783 -79.2561 44° Northeast 370 426 26,900 545 Climbing Washington Center
Fri 11:20:57 AM 34.3742 -79.2000 26° Northeast 376 433 27,000 50 Climbing Washington Center
Fri 11:21:58 AM 34.4736 -79.1467 24° Northeast 381 438 27,000  Level Washington Center
Fri 11:22:58 AM 34.5692 -79.0903 26° Northeast 381 438 27,000  Level Washington Center
Fri 11:24:00 AM 34.6625 -79.0361 26° Northeast 381 438 27,000  Level Washington Center
Fri 11:24:57 AM 34.7581 -78.9819 25° Northeast 376 433 27,000  Level Washington Center
Fri 11:25:58 AM 34.8556 -78.9253 25° Northeast 371 427 27,000  Level Washington Center
Fri 11:26:59 AM 34.9489 -78.8708 26° Northeast 371 427 27,000  Level Washington Center
Fri 11:27:59 AM 35.0444 -78.8139 26° Northeast 371 427 27,000  Level Washington Center
Fri 11:29:00 AM 35.1397 -78.7567 26° Northeast 371 427 27,000  Level Washington Center
Fri 11:29:57 AM 35.2394 -78.6997 25° Northeast 371 427 27,000  Level Washington Center
Fri 11:30:58 AM 35.3347 -78.6447 25° Northeast 371 427 27,000  Level Washington Center
Fri 11:31:59 AM 35.4406 -78.5800 26° Northeast 377 434 27,000  Level Washington Center
Fri 11:32:59 AM 35.5294 -78.5297 25° Northeast 382 440 27,000  Level Washington Center
Fri 11:33:59 AM 35.6397 -78.4622 26° Northeast 390 449 27,000  Level Washington Center
Fri 11:34:57 AM 35.7350 -78.4067 25° Northeast 385 443 27,000  Level Washington Center
Fri 11:35:58 AM 35.8281 -78.3511 26° Northeast 378 435 27,000  Level Washington Center
Fri 11:36:58 AM 35.9233 -78.2928 26° Northeast 378 435 27,000  Level Washington Center
Fri 11:37:58 AM 36.0183 -78.2344 26° Northeast 378 435 27,000  Level Washington Center
Fri 11:38:59 AM 36.1136 -78.1811 24° Northeast 378 435 27,000  Level Washington Center
Fri 11:39:57 AM 36.2086 -78.1225 26° Northeast 373 429 27,000  Level Washington Center
Fri 11:40:58 AM 36.3039 -78.0636 26° Northeast 373 429 27,000  Level Washington Center
Fri 11:41:59 AM 36.3989 -78.0047 27° Northeast 373 429 27,000  Level Washington Center
Fri 11:42:57 AM 36.4811 -77.9556 26° Northeast 368 423 27,000  Level Washington Center
Fri 11:43:57 AM 36.5761 -77.8964 27° Northeast 368 423 27,000  Level Washington Center
Fri 11:44:58 AM 36.6692 -77.8397 26° Northeast 368 423 27,000  Level Washington Center
Fri 11:45:58 AM 36.7233 -77.7272 59° Northeast 358 412 27,000  Level Washington Center
Fri 11:46:59 AM 36.7342 -77.5900 84° East 358 412 27,000  Level Washington Center
Fri 11:47:59 AM 36.7717 -77.4614 70° East 372 428 27,000  Level Washington Center
Fri 11:48:57 AM 36.8700 -77.4353 12° North 326 375 27,000  Level Washington Center
Fri 11:49:57 AM 36.9725 -77.4194 North 330 380 27,000 -595 Level Washington Center
Fri 11:50:58 AM 37.0708 -77.4036 North 336 387 25,800 -1,475 Descending Washington Center
Fri 11:51:59 AM 37.1692 -77.3850 North 347 399 24,000 -893 Descending Washington Center
Fri 11:52:59 AM 37.2758 -77.3667 North 365 420 24,000 -150 Level Washington Center
Fri 11:53:59 AM 37.3803 -77.3456 North 371 427 23,700 -508 Descending Washington Center
Fri 11:54:57 AM 37.4828 -77.3244 North 371 427 23,000 -706 Descending Washington Center
Fri 11:55:58 AM 37.5875 -77.3058 North 371 427 22,300 -689 Descending Washington Center
Fri 11:56:59 AM 37.6881 -77.2817 11° North 371 427 21,600 -807 Descending Washington Center
Fri 11:57:57 AM 37.7861 -77.2631 North 371 427 20,700 -1,475 Descending Washington Center
Fri 11:58:57 AM 37.8825 -77.2414 10° North 365 420 18,700 -2,000 Descending Washington Center
Fri 11:59:57 AM 37.9744 -77.2222 North 345 397 16,700 -1,950 Descending Washington Center
Fri 12:00:57 PM 38.0603 -77.2083 North 331 381 14,800 -1,918 Descending Washington Center
Fri 12:01:59 PM 38.1481 -77.1892 10° North 315 362 12,800 -1,951 Descending Washington Center
Fri 12:03:00 PM 38.2339 -77.1697 10° North 310 357 10,800 -1,424 Descending Washington Center
Fri 12:03:57 PM 38.3131 -77.1583 North 303 349 10,000 -407 Descending Washington Center
Fri 12:04:58 PM 38.3906 -77.1386 11° North 289 333 10,000  Level Washington Center
Fri 12:06:00 PM 38.4722 -77.1217 North 289 333 10,000  Level Washington Center
Fri 12:06:57 PM 38.5517 -77.1047 North 289 333 10,000 -462 Level Washington Center
Fri 12:07:57 PM 38.6289 -77.0878 10° North 289 333 9,100 -1,688 Descending Washington Center
Fri 12:08:33 PM 38.6833 -77.0667 17° North 289 333 7,300 -1,938 Descending Potomac TRACON
Fri 12:09:33 PM 38.7667 -77.0667 360° North 276 318 6,000 -650 Descending Potomac TRACON
Fri 12:10:33 PM 38.8333 -77.1167 330° Northwest 281 323 6,000 -500 Level Potomac TRACON
Fri 12:11:33 PM 38.8833 -77.1833 314° West 258 297 5,000 -950 Descending Potomac TRACON
Fri 12:12:33 PM 38.9333 -77.2333 322° Northwest 259 298 4,100 -900 Descending Potomac TRACON

Login

Don't have an account? Register now (free) for customized features, flight alerts, and more!